sensor_id;sensor_type;location;lat;lon;timestamp;temperature;humidity
23233;DHT22;11785;49.500;8.288;2022-12-18T00:02:06;-5.70;59.80
23233;DHT22;11785;49.500;8.288;2022-12-18T00:04:32;-5.80;59.70
23233;DHT22;11785;49.500;8.288;2022-12-18T00:06:57;-5.80;59.70
23233;DHT22;11785;49.500;8.288;2022-12-18T00:09:23;-5.80;59.70
23233;DHT22;11785;49.500;8.288;2022-12-18T00:11:48;-5.80;59.70
23233;DHT22;11785;49.500;8.288;2022-12-18T00:14:14;-5.90;59.70
23233;DHT22;11785;49.500;8.288;2022-12-18T00:16:43;-5.90;59.70
23233;DHT22;11785;49.500;8.288;2022-12-18T00:19:10;-5.80;59.70
23233;DHT22;11785;49.500;8.288;2022-12-18T00:21:35;-5.90;59.70
23233;DHT22;11785;49.500;8.288;2022-12-18T00:24:01;-5.90;59.70
23233;DHT22;11785;49.500;8.288;2022-12-18T00:26:32;-5.90;59.70
23233;DHT22;11785;49.500;8.288;2022-12-18T00:28:59;-5.90;59.70
23233;DHT22;11785;49.500;8.288;2022-12-18T00:31:26;-6.00;59.80
23233;DHT22;11785;49.500;8.288;2022-12-18T00:33:53;-6.00;59.80
23233;DHT22;11785;49.500;8.288;2022-12-18T00:36:21;-5.90;59.80
23233;DHT22;11785;49.500;8.288;2022-12-18T00:38:47;-5.90;59.80
23233;DHT22;11785;49.500;8.288;2022-12-18T00:41:15;-5.90;59.80
23233;DHT22;11785;49.500;8.288;2022-12-18T00:44:00;-5.90;59.80
23233;DHT22;11785;49.500;8.288;2022-12-18T00:46:26;-5.90;59.80
23233;DHT22;11785;49.500;8.288;2022-12-18T00:48:51;-5.90;59.80
23233;DHT22;11785;49.500;8.288;2022-12-18T00:51:17;-5.90;59.70
23233;DHT22;11785;49.500;8.288;2022-12-18T00:53:42;-5.90;59.70
23233;DHT22;11785;49.500;8.288;2022-12-18T00:56:08;-5.90;59.70
23233;DHT22;11785;49.500;8.288;2022-12-18T00:58:33;-5.90;59.70
23233;DHT22;11785;49.500;8.288;2022-12-18T01:01:04;-5.90;59.80
23233;DHT22;11785;49.500;8.288;2022-12-18T01:03:29;-5.90;59.80
23233;DHT22;11785;49.500;8.288;2022-12-18T01:05:56;-5.90;59.80
23233;DHT22;11785;49.500;8.288;2022-12-18T01:08:21;-5.90;59.80
23233;DHT22;11785;49.500;8.288;2022-12-18T01:10:47;-5.90;59.80
23233;DHT22;11785;49.500;8.288;2022-12-18T01:13:12;-6.00;59.80
23233;DHT22;11785;49.500;8.288;2022-12-18T01:15:38;-5.90;59.80
23233;DHT22;11785;49.500;8.288;2022-12-18T01:18:06;-5.90;59.80
23233;DHT22;11785;49.500;8.288;2022-12-18T01:20:32;-5.90;59.80
23233;DHT22;11785;49.500;8.288;2022-12-18T01:22:58;-5.90;59.80
23233;DHT22;11785;49.500;8.288;2022-12-18T01:25:23;-5.90;59.80
23233;DHT22;11785;49.500;8.288;2022-12-18T01:27:49;-5.90;59.80
23233;DHT22;11785;49.500;8.288;2022-12-18T01:30:14;-6.00;59.80
23233;DHT22;11785;49.500;8.288;2022-12-18T01:32:40;-6.00;59.80
23233;DHT22;11785;49.500;8.288;2022-12-18T01:35:06;-6.00;59.80
23233;DHT22;11785;49.500;8.288;2022-12-18T01:37:32;-6.00;59.80
23233;DHT22;11785;49.500;8.288;2022-12-18T01:39:58;-5.90;59.80
23233;DHT22;11785;49.500;8.288;2022-12-18T01:42:23;-5.90;59.80
23233;DHT22;11785;49.500;8.288;2022-12-18T01:47:52;-6.00;59.80
23233;DHT22;11785;49.500;8.288;2022-12-18T01:50:30;-6.00;59.80
23233;DHT22;11785;49.500;8.288;2022-12-18T01:55:35;-6.00;59.80
23233;DHT22;11785;49.500;8.288;2022-12-18T01:58:01;-6.00;59.80
23233;DHT22;11785;49.500;8.288;2022-12-18T02:00:28;-6.10;59.80
23233;DHT22;11785;49.500;8.288;2022-12-18T02:02:54;-6.10;59.80
23233;DHT22;11785;49.500;8.288;2022-12-18T02:08:26;-6.10;59.80
23233;DHT22;11785;49.500;8.288;2022-12-18T02:16:56;-6.10;59.80
23233;DHT22;11785;49.500;8.288;2022-12-18T02:25:38;-6.10;59.80
23233;DHT22;11785;49.500;8.288;2022-12-18T02:28:11;-6.10;59.80
23233;DHT22;11785;49.500;8.288;2022-12-18T02:30:39;-6.10;59.80
23233;DHT22;11785;49.500;8.288;2022-12-18T02:33:08;-6.10;59.80
23233;DHT22;11785;49.500;8.288;2022-12-18T02:35:36;-6.10;59.80
23233;DHT22;11785;49.500;8.288;2022-12-18T02:38:04;-6.10;59.80
23233;DHT22;11785;49.500;8.288;2022-12-18T02:40:30;-6.10;59.80
23233;DHT22;11785;49.500;8.288;2022-12-18T02:43:12;-6.10;59.80
23233;DHT22;11785;49.500;8.288;2022-12-18T02:45:56;-6.10;59.80
23233;DHT22;11785;49.500;8.288;2022-12-18T02:48:31;-6.10;59.80
23233;DHT22;11785;49.500;8.288;2022-12-18T02:51:06;-6.20;59.90
23233;DHT22;11785;49.500;8.288;2022-12-18T02:53:38;-6.20;59.90
23233;DHT22;11785;49.500;8.288;2022-12-18T02:56:11;-6.20;59.80
23233;DHT22;11785;49.500;8.288;2022-12-18T03:03:58;-6.30;59.90
23233;DHT22;11785;49.500;8.288;2022-12-18T03:06:35;-6.30;59.90
23233;DHT22;11785;49.500;8.288;2022-12-18T03:09:08;-6.30;59.90
23233;DHT22;11785;49.500;8.288;2022-12-18T03:11:38;-6.30;59.90
23233;DHT22;11785;49.500;8.288;2022-12-18T03:14:24;-6.30;59.90
23233;DHT22;11785;49.500;8.288;2022-12-18T03:16:54;-6.20;59.90
23233;DHT22;11785;49.500;8.288;2022-12-18T03:19:25;-6.30;59.90
23233;DHT22;11785;49.500;8.288;2022-12-18T03:21:54;-6.40;59.90
23233;DHT22;11785;49.500;8.288;2022-12-18T03:24:21;-6.30;59.90
23233;DHT22;11785;49.500;8.288;2022-12-18T03:26:52;-6.30;59.90
23233;DHT22;11785;49.500;8.288;2022-12-18T03:29:22;-6.30;59.90
23233;DHT22;11785;49.500;8.288;2022-12-18T03:31:56;-6.30;59.90
23233;DHT22;11785;49.500;8.288;2022-12-18T03:34:31;-6.30;59.90
23233;DHT22;11785;49.500;8.288;2022-12-18T03:36:57;-6.30;59.90
23233;DHT22;11785;49.500;8.288;2022-12-18T03:39:24;-6.30;59.90
23233;DHT22;11785;49.500;8.288;2022-12-18T03:47:36;-6.30;59.90
23233;DHT22;11785;49.500;8.288;2022-12-18T03:52:40;-6.30;59.90
23233;DHT22;11785;49.500;8.288;2022-12-18T03:55:09;-6.30;59.90
23233;DHT22;11785;49.500;8.288;2022-12-18T03:57:36;-6.20;59.90
23233;DHT22;11785;49.500;8.288;2022-12-18T04:00:11;-6.20;59.90
23233;DHT22;11785;49.500;8.288;2022-12-18T04:02:42;-6.20;59.80
23233;DHT22;11785;49.500;8.288;2022-12-18T04:05:09;-6.20;59.80
23233;DHT22;11785;49.500;8.288;2022-12-18T04:07:36;-6.30;59.90
23233;DHT22;11785;49.500;8.288;2022-12-18T04:10:04;-6.30;59.90
23233;DHT22;11785;49.500;8.288;2022-12-18T04:12:31;-6.30;59.90
23233;DHT22;11785;49.500;8.288;2022-12-18T04:14:56;-6.30;59.90
23233;DHT22;11785;49.500;8.288;2022-12-18T04:17:22;-6.30;59.90
23233;DHT22;11785;49.500;8.288;2022-12-18T04:19:48;-6.30;59.90
23233;DHT22;11785;49.500;8.288;2022-12-18T04:22:13;-6.30;59.90
23233;DHT22;11785;49.500;8.288;2022-12-18T04:24:39;-6.20;59.90
23233;DHT22;11785;49.500;8.288;2022-12-18T04:27:04;-6.20;59.90
23233;DHT22;11785;49.500;8.288;2022-12-18T04:29:30;-6.20;59.90
23233;DHT22;11785;49.500;8.288;2022-12-18T04:31:56;-6.10;59.80
23233;DHT22;11785;49.500;8.288;2022-12-18T04:34:22;-6.10;59.80
23233;DHT22;11785;49.500;8.288;2022-12-18T04:36:47;-6.10;59.80
23233;DHT22;11785;49.500;8.288;2022-12-18T04:39:13;-6.20;59.80
23233;DHT22;11785;49.500;8.288;2022-12-18T04:41:39;-6.20;59.80
23233;DHT22;11785;49.500;8.288;2022-12-18T04:44:05;-6.30;59.90
23233;DHT22;11785;49.500;8.288;2022-12-18T04:46:30;-6.30;59.90
23233;DHT22;11785;49.500;8.288;2022-12-18T04:48:56;-6.30;59.90
23233;DHT22;11785;49.500;8.288;2022-12-18T04:51:21;-6.30;59.90
23233;DHT22;11785;49.500;8.288;2022-12-18T04:53:47;-6.30;59.90
23233;DHT22;11785;49.500;8.288;2022-12-18T04:56:14;-6.40;59.90
23233;DHT22;11785;49.500;8.288;2022-12-18T04:58:41;-6.40;59.90
23233;DHT22;11785;49.500;8.288;2022-12-18T05:01:08;-6.30;59.90
23233;DHT22;11785;49.500;8.288;2022-12-18T05:03:34;-6.30;59.90
23233;DHT22;11785;49.500;8.288;2022-12-18T05:06:01;-6.30;59.90
23233;DHT22;11785;49.500;8.288;2022-12-18T05:08:26;-6.20;59.90
23233;DHT22;11785;49.500;8.288;2022-12-18T05:11:03;-6.30;59.90
23233;DHT22;11785;49.500;8.288;2022-12-18T05:13:29;-6.20;59.90
23233;DHT22;11785;49.500;8.288;2022-12-18T05:15:55;-6.20;59.90
23233;DHT22;11785;49.500;8.288;2022-12-18T05:18:25;-6.20;59.80
23233;DHT22;11785;49.500;8.288;2022-12-18T05:20:52;-6.20;59.80
23233;DHT22;11785;49.500;8.288;2022-12-18T05:23:18;-6.20;59.80
23233;DHT22;11785;49.500;8.288;2022-12-18T05:25:56;-6.10;59.80
23233;DHT22;11785;49.500;8.288;2022-12-18T05:28:24;-6.20;59.80
23233;DHT22;11785;49.500;8.288;2022-12-18T05:30:54;-6.20;59.80
23233;DHT22;11785;49.500;8.288;2022-12-18T05:33:22;-6.20;59.80
23233;DHT22;11785;49.500;8.288;2022-12-18T05:35:52;-6.20;59.80
23233;DHT22;11785;49.500;8.288;2022-12-18T05:38:19;-6.20;59.80
23233;DHT22;11785;49.500;8.288;2022-12-18T05:40:45;-6.20;59.80
23233;DHT22;11785;49.500;8.288;2022-12-18T05:43:10;-6.20;59.80
23233;DHT22;11785;49.500;8.288;2022-12-18T05:45:39;-6.20;59.80
23233;DHT22;11785;49.500;8.288;2022-12-18T05:48:06;-6.20;59.80
23233;DHT22;11785;49.500;8.288;2022-12-18T05:50:37;-6.20;59.80
23233;DHT22;11785;49.500;8.288;2022-12-18T05:53:04;-6.20;59.80
23233;DHT22;11785;49.500;8.288;2022-12-18T05:55:38;-6.10;59.80
23233;DHT22;11785;49.500;8.288;2022-12-18T05:58:05;-6.00;59.80
23233;DHT22;11785;49.500;8.288;2022-12-18T06:00:32;-6.00;59.80
23233;DHT22;11785;49.500;8.288;2022-12-18T06:02:59;-6.10;59.80
23233;DHT22;11785;49.500;8.288;2022-12-18T06:05:25;-6.20;59.80
23233;DHT22;11785;49.500;8.288;2022-12-18T06:07:50;-6.20;59.80
23233;DHT22;11785;49.500;8.288;2022-12-18T06:10:16;-6.20;59.80
23233;DHT22;11785;49.500;8.288;2022-12-18T06:12:42;-6.20;59.80
23233;DHT22;11785;49.500;8.288;2022-12-18T06:15:08;-6.20;59.80
23233;DHT22;11785;49.500;8.288;2022-12-18T06:17:34;-6.20;59.80
23233;DHT22;11785;49.500;8.288;2022-12-18T06:20:00;-6.10;59.80
23233;DHT22;11785;49.500;8.288;2022-12-18T06:22:27;-6.10;59.80
23233;DHT22;11785;49.500;8.288;2022-12-18T06:24:52;-6.10;59.80
23233;DHT22;11785;49.500;8.288;2022-12-18T06:27:18;-6.10;59.80
23233;DHT22;11785;49.500;8.288;2022-12-18T06:29:44;-6.10;59.80
23233;DHT22;11785;49.500;8.288;2022-12-18T06:32:10;-6.10;59.80
23233;DHT22;11785;49.500;8.288;2022-12-18T06:34:37;-6.10;59.80
23233;DHT22;11785;49.500;8.288;2022-12-18T06:37:03;-6.10;59.80
23233;DHT22;11785;49.500;8.288;2022-12-18T06:39:29;-6.10;59.80
23233;DHT22;11785;49.500;8.288;2022-12-18T06:41:54;-6.20;59.80
23233;DHT22;11785;49.500;8.288;2022-12-18T06:44:20;-6.20;59.80
23233;DHT22;11785;49.500;8.288;2022-12-18T06:46:46;-6.20;59.80
23233;DHT22;11785;49.500;8.288;2022-12-18T06:49:12;-6.20;59.80
23233;DHT22;11785;49.500;8.288;2022-12-18T06:51:38;-6.30;59.80
23233;DHT22;11785;49.500;8.288;2022-12-18T06:54:03;-6.30;59.80
23233;DHT22;11785;49.500;8.288;2022-12-18T06:56:29;-6.20;59.80
23233;DHT22;11785;49.500;8.288;2022-12-18T06:58:55;-6.20;59.80
23233;DHT22;11785;49.500;8.288;2022-12-18T07:01:20;-6.20;59.80
23233;DHT22;11785;49.500;8.288;2022-12-18T07:03:46;-6.30;59.80
23233;DHT22;11785;49.500;8.288;2022-12-18T07:06:17;-6.30;59.80
23233;DHT22;11785;49.500;8.288;2022-12-18T07:08:44;-6.30;59.80
23233;DHT22;11785;49.500;8.288;2022-12-18T07:11:10;-6.30;59.80
23233;DHT22;11785;49.500;8.288;2022-12-18T07:13:36;-6.30;59.80
23233;DHT22;11785;49.500;8.288;2022-12-18T07:18:31;-6.30;59.80
23233;DHT22;11785;49.500;8.288;2022-12-18T07:20:57;-6.30;59.90
23233;DHT22;11785;49.500;8.288;2022-12-18T07:23:22;-6.30;59.90
23233;DHT22;11785;49.500;8.288;2022-12-18T07:25:48;-6.20;59.80
23233;DHT22;11785;49.500;8.288;2022-12-18T07:28:13;-6.20;59.80
23233;DHT22;11785;49.500;8.288;2022-12-18T07:30:40;-6.20;59.80
23233;DHT22;11785;49.500;8.288;2022-12-18T07:33:05;-6.20;59.80
23233;DHT22;11785;49.500;8.288;2022-12-18T07:35:33;-6.20;59.80
23233;DHT22;11785;49.500;8.288;2022-12-18T07:37:58;-6.10;59.80
23233;DHT22;11785;49.500;8.288;2022-12-18T07:40:26;-6.10;59.80
23233;DHT22;11785;49.500;8.288;2022-12-18T07:42:52;-6.10;59.80
23233;DHT22;11785;49.500;8.288;2022-12-18T07:45:17;-6.10;59.80
23233;DHT22;11785;49.500;8.288;2022-12-18T07:47:43;-6.10;59.80
23233;DHT22;11785;49.500;8.288;2022-12-18T07:50:09;-6.00;59.80
23233;DHT22;11785;49.500;8.288;2022-12-18T07:52:34;-6.10;59.80
23233;DHT22;11785;49.500;8.288;2022-12-18T07:55:00;-6.10;59.80
23233;DHT22;11785;49.500;8.288;2022-12-18T07:57:25;-6.00;59.80
23233;DHT22;11785;49.500;8.288;2022-12-18T07:59:51;-6.00;59.80
23233;DHT22;11785;49.500;8.288;2022-12-18T08:02:16;-6.00;59.80
23233;DHT22;11785;49.500;8.288;2022-12-18T08:04:42;-6.00;59.80
23233;DHT22;11785;49.500;8.288;2022-12-18T08:07:07;-5.90;59.80
23233;DHT22;11785;49.500;8.288;2022-12-18T08:09:33;-5.90;59.70
23233;DHT22;11785;49.500;8.288;2022-12-18T08:11:59;-5.90;59.70
23233;DHT22;11785;49.500;8.288;2022-12-18T08:14:24;-5.80;59.70
23233;DHT22;11785;49.500;8.288;2022-12-18T08:16:50;-5.80;59.70
23233;DHT22;11785;49.500;8.288;2022-12-18T08:19:15;-5.80;59.70
23233;DHT22;11785;49.500;8.288;2022-12-18T08:21:41;-5.80;59.70
23233;DHT22;11785;49.500;8.288;2022-12-18T08:24:08;-5.70;59.70
23233;DHT22;11785;49.500;8.288;2022-12-18T08:26:34;-5.70;59.70
23233;DHT22;11785;49.500;8.288;2022-12-18T08:29:03;-5.60;59.70
23233;DHT22;11785;49.500;8.288;2022-12-18T08:31:29;-5.60;59.70
23233;DHT22;11785;49.500;8.288;2022-12-18T08:33:55;-5.50;59.60
23233;DHT22;11785;49.500;8.288;2022-12-18T08:36:22;-5.40;59.60
23233;DHT22;11785;49.500;8.288;2022-12-18T08:38:48;-5.40;59.60
23233;DHT22;11785;49.500;8.288;2022-12-18T08:41:15;-5.40;59.50
23233;DHT22;11785;49.500;8.288;2022-12-18T08:43:41;-5.50;59.50
23233;DHT22;11785;49.500;8.288;2022-12-18T08:46:27;-5.40;59.50
23233;DHT22;11785;49.500;8.288;2022-12-18T08:48:54;-5.30;59.50
23233;DHT22;11785;49.500;8.288;2022-12-18T08:51:20;-5.30;59.50
23233;DHT22;11785;49.500;8.288;2022-12-18T08:53:49;-5.30;59.50
23233;DHT22;11785;49.500;8.288;2022-12-18T08:56:14;-5.20;59.40
23233;DHT22;11785;49.500;8.288;2022-12-18T08:58:41;-5.20;59.40
23233;DHT22;11785;49.500;8.288;2022-12-18T09:01:08;-5.20;59.40
23233;DHT22;11785;49.500;8.288;2022-12-18T09:03:34;-5.20;59.40
23233;DHT22;11785;49.500;8.288;2022-12-18T09:06:00;-5.10;59.40
23233;DHT22;11785;49.500;8.288;2022-12-18T09:08:27;-5.10;59.40
23233;DHT22;11785;49.500;8.288;2022-12-18T09:10:52;-5.20;59.30
23233;DHT22;11785;49.500;8.288;2022-12-18T09:13:18;-5.20;59.40
23233;DHT22;11785;49.500;8.288;2022-12-18T09:15:49;-5.30;59.40
23233;DHT22;11785;49.500;8.288;2022-12-18T09:18:16;-5.20;59.40
23233;DHT22;11785;49.500;8.288;2022-12-18T09:20:42;-5.20;59.40
23233;DHT22;11785;49.500;8.288;2022-12-18T09:23:08;-5.20;59.40
23233;DHT22;11785;49.500;8.288;2022-12-18T09:25:35;-5.10;59.30
23233;DHT22;11785;49.500;8.288;2022-12-18T09:28:03;-5.00;59.30
23233;DHT22;11785;49.500;8.288;2022-12-18T09:30:29;-4.80;59.30
23233;DHT22;11785;49.500;8.288;2022-12-18T09:32:55;-4.60;59.20
23233;DHT22;11785;49.500;8.288;2022-12-18T09:35:20;-4.50;59.20
23233;DHT22;11785;49.500;8.288;2022-12-18T09:37:46;-4.40;59.20
23233;DHT22;11785;49.500;8.288;2022-12-18T09:40:19;-4.40;59.10
23233;DHT22;11785;49.500;8.288;2022-12-18T09:42:50;-4.30;59.10
23233;DHT22;11785;49.500;8.288;2022-12-18T09:45:17;-4.20;59.10
23233;DHT22;11785;49.500;8.288;2022-12-18T09:47:45;-4.20;59.10
23233;DHT22;11785;49.500;8.288;2022-12-18T09:50:31;-4.10;59.00
23233;DHT22;11785;49.500;8.288;2022-12-18T09:53:02;-3.90;59.00
23233;DHT22;11785;49.500;8.288;2022-12-18T09:55:41;-3.80;48.40
23233;DHT22;11785;49.500;8.288;2022-12-18T09:58:19;-3.80;48.40
23233;DHT22;11785;49.500;8.288;2022-12-18T10:00:45;-3.70;99.90
23233;DHT22;11785;49.500;8.288;2022-12-18T10:03:15;-3.50;99.90
23233;DHT22;11785;49.500;8.288;2022-12-18T10:06:02;-3.40;99.90
23233;DHT22;11785;49.500;8.288;2022-12-18T10:14:17;-3.00;99.90
23233;DHT22;11785;49.500;8.288;2022-12-18T10:20:13;-2.70;99.90
23233;DHT22;11785;49.500;8.288;2022-12-18T10:27:54;-2.70;99.90
23233;DHT22;11785;49.500;8.288;2022-12-18T10:30:23;-2.70;99.90
23233;DHT22;11785;49.500;8.288;2022-12-18T10:32:48;-2.90;99.90
23233;DHT22;11785;49.500;8.288;2022-12-18T10:35:20;-3.00;99.90
23233;DHT22;11785;49.500;8.288;2022-12-18T10:44:31;-2.90;99.90
23233;DHT22;11785;49.500;8.288;2022-12-18T10:47:04;-2.80;99.90
23233;DHT22;11785;49.500;8.288;2022-12-18T10:49:32;-3.00;99.90
23233;DHT22;11785;49.500;8.288;2022-12-18T10:52:15;-3.00;99.90
23233;DHT22;11785;49.500;8.288;2022-12-18T10:54:48;-3.10;99.90
23233;DHT22;11785;49.500;8.288;2022-12-18T10:57:29;-3.00;99.90
23233;DHT22;11785;49.500;8.288;2022-12-18T10:59:58;-2.80;99.90
23233;DHT22;11785;49.500;8.288;2022-12-18T11:02:33;-2.60;99.90
23233;DHT22;11785;49.500;8.288;2022-12-18T11:05:00;-2.40;99.90
23233;DHT22;11785;49.500;8.288;2022-12-18T11:07:25;-2.10;99.90
23233;DHT22;11785;49.500;8.288;2022-12-18T11:10:01;-2.10;99.90
23233;DHT22;11785;49.500;8.288;2022-12-18T11:12:32;-2.20;99.90
23233;DHT22;11785;49.500;8.288;2022-12-18T11:14:58;-2.00;99.90
23233;DHT22;11785;49.500;8.288;2022-12-18T11:20:06;-1.50;99.90
23233;DHT22;11785;49.500;8.288;2022-12-18T11:22:36;-1.30;99.90
23233;DHT22;11785;49.500;8.288;2022-12-18T11:27:41;-1.30;99.90
23233;DHT22;11785;49.500;8.288;2022-12-18T11:30:29;-1.30;99.90
23233;DHT22;11785;49.500;8.288;2022-12-18T11:33:04;-1.80;99.90
23233;DHT22;11785;49.500;8.288;2022-12-18T11:35:49;-1.90;99.90
23233;DHT22;11785;49.500;8.288;2022-12-18T11:38:40;-2.00;99.90
23233;DHT22;11785;49.500;8.288;2022-12-18T11:41:34;-1.70;99.90
23233;DHT22;11785;49.500;8.288;2022-12-18T11:44:26;-1.70;99.90
23233;DHT22;11785;49.500;8.288;2022-12-18T11:47:09;-2.10;99.90
23233;DHT22;11785;49.500;8.288;2022-12-18T11:49:40;-2.20;99.90
23233;DHT22;11785;49.500;8.288;2022-12-18T11:52:16;-2.20;99.90
23233;DHT22;11785;49.500;8.288;2022-12-18T11:54:44;-2.30;99.90
23233;DHT22;11785;49.500;8.288;2022-12-18T11:57:29;-2.20;99.90
23233;DHT22;11785;49.500;8.288;2022-12-18T12:00:18;-1.90;99.90
23233;DHT22;11785;49.500;8.288;2022-12-18T12:03:07;-1.70;99.90
23233;DHT22;11785;49.500;8.288;2022-12-18T12:08:36;-1.40;99.90
23233;DHT22;11785;49.500;8.288;2022-12-18T12:22:21;-0.30;99.90
23233;DHT22;11785;49.500;8.288;2022-12-18T12:36:13;-0.10;99.90
23233;DHT22;11785;49.500;8.288;2022-12-18T12:38:44;-0.40;99.90
23233;DHT22;11785;49.500;8.288;2022-12-18T12:41:19;-0.40;99.90
23233;DHT22;11785;49.500;8.288;2022-12-18T12:44:08;-0.60;99.90
23233;DHT22;11785;49.500;8.288;2022-12-18T12:46:37;-0.80;99.90
23233;DHT22;11785;49.500;8.288;2022-12-18T12:49:09;-0.90;99.90
23233;DHT22;11785;49.500;8.288;2022-12-18T12:51:39;-0.90;99.90
23233;DHT22;11785;49.500;8.288;2022-12-18T12:54:14;-0.80;99.90
23233;DHT22;11785;49.500;8.288;2022-12-18T12:59:56;-0.60;99.90
23233;DHT22;11785;49.500;8.288;2022-12-18T13:02:48;-0.70;99.90
23233;DHT22;11785;49.500;8.288;2022-12-18T13:05:26;-0.80;99.90
23233;DHT22;11785;49.500;8.288;2022-12-18T13:07:59;-0.70;99.90
23233;DHT22;11785;49.500;8.288;2022-12-18T13:10:35;-0.80;99.90
23233;DHT22;11785;49.500;8.288;2022-12-18T13:13:15;-0.90;99.90
23233;DHT22;11785;49.500;8.288;2022-12-18T13:15:48;-0.70;99.90
23233;DHT22;11785;49.500;8.288;2022-12-18T13:18:23;-0.60;99.90
23233;DHT22;11785;49.500;8.288;2022-12-18T13:34:23;-1.30;99.90
23233;DHT22;11785;49.500;8.288;2022-12-18T13:36:50;-1.40;99.90
23233;DHT22;11785;49.500;8.288;2022-12-18T13:41:48;-1.60;99.90
23233;DHT22;11785;49.500;8.288;2022-12-18T13:44:39;-1.70;99.90
23233;DHT22;11785;49.500;8.288;2022-12-18T13:47:25;-1.80;99.90
23233;DHT22;11785;49.500;8.288;2022-12-18T13:49:53;-1.80;99.90
23233;DHT22;11785;49.500;8.288;2022-12-18T13:52:26;-1.80;99.90
23233;DHT22;11785;49.500;8.288;2022-12-18T13:54:55;-1.80;99.90
23233;DHT22;11785;49.500;8.288;2022-12-18T13:57:30;-1.90;99.90
23233;DHT22;11785;49.500;8.288;2022-12-18T13:59:56;-2.10;99.90
23233;DHT22;11785;49.500;8.288;2022-12-18T14:02:28;-2.10;99.90
23233;DHT22;11785;49.500;8.288;2022-12-18T14:04:54;-2.10;99.90
23233;DHT22;11785;49.500;8.288;2022-12-18T14:07:25;-2.10;99.90
23233;DHT22;11785;49.500;8.288;2022-12-18T14:09:59;-2.00;99.90
23233;DHT22;11785;49.500;8.288;2022-12-18T14:12:33;-2.10;99.90
23233;DHT22;11785;49.500;8.288;2022-12-18T14:17:58;-2.10;99.90
23233;DHT22;11785;49.500;8.288;2022-12-18T14:20:26;-2.10;99.90
23233;DHT22;11785;49.500;8.288;2022-12-18T14:22:52;-2.10;99.90
23233;DHT22;11785;49.500;8.288;2022-12-18T14:30:34;-2.30;99.90
23233;DHT22;11785;49.500;8.288;2022-12-18T14:33:11;-2.30;99.90
23233;DHT22;11785;49.500;8.288;2022-12-18T14:35:41;-2.30;99.90
23233;DHT22;11785;49.500;8.288;2022-12-18T14:43:31;-2.70;99.90
23233;DHT22;11785;49.500;8.288;2022-12-18T14:46:05;-2.80;99.90
23233;DHT22;11785;49.500;8.288;2022-12-18T14:48:40;-2.90;99.90
23233;DHT22;11785;49.500;8.288;2022-12-18T14:51:16;-3.00;99.90
23233;DHT22;11785;49.500;8.288;2022-12-18T14:54:05;-3.10;99.90
23233;DHT22;11785;49.500;8.288;2022-12-18T14:56:30;-3.10;99.90
23233;DHT22;11785;49.500;8.288;2022-12-18T14:59:04;-3.10;99.90
23233;DHT22;11785;49.500;8.288;2022-12-18T15:01:36;-3.20;99.90
23233;DHT22;11785;49.500;8.288;2022-12-18T15:04:03;-3.30;99.90
23233;DHT22;11785;49.500;8.288;2022-12-18T15:06:35;-3.40;99.90
23233;DHT22;11785;49.500;8.288;2022-12-18T15:09:05;-3.40;99.90
23233;DHT22;11785;49.500;8.288;2022-12-18T15:11:45;-3.50;99.90
23233;DHT22;11785;49.500;8.288;2022-12-18T15:14:34;-3.50;99.90
23233;DHT22;11785;49.500;8.288;2022-12-18T15:17:02;-3.60;99.90
23233;DHT22;11785;49.500;8.288;2022-12-18T15:19:37;-3.70;99.90
23233;DHT22;11785;49.500;8.288;2022-12-18T15:22:04;-3.70;99.90
23233;DHT22;11785;49.500;8.288;2022-12-18T15:24:31;-3.70;99.90
23233;DHT22;11785;49.500;8.288;2022-12-18T15:26:58;-3.80;48.40
23233;DHT22;11785;49.500;8.288;2022-12-18T15:29:25;-3.80;48.40
23233;DHT22;11785;49.500;8.288;2022-12-18T15:32:05;-3.80;48.40
23233;DHT22;11785;49.500;8.288;2022-12-18T15:34:31;-3.80;48.40
23233;DHT22;11785;49.500;8.288;2022-12-18T15:36:57;-3.80;48.40
23233;DHT22;11785;49.500;8.288;2022-12-18T15:39:23;-3.80;48.40
23233;DHT22;11785;49.500;8.288;2022-12-18T15:41:48;-3.80;48.40
23233;DHT22;11785;49.500;8.288;2022-12-18T15:44:33;-3.80;48.40
23233;DHT22;11785;49.500;8.288;2022-12-18T15:46:58;-3.80;48.40
23233;DHT22;11785;49.500;8.288;2022-12-18T15:49:24;-3.80;48.40
23233;DHT22;11785;49.500;8.288;2022-12-18T15:51:53;-3.70;99.90
23233;DHT22;11785;49.500;8.288;2022-12-18T15:54:20;-3.70;99.90
23233;DHT22;11785;49.500;8.288;2022-12-18T15:57:11;-3.70;99.90
23233;DHT22;11785;49.500;8.288;2022-12-18T15:59:51;-3.60;99.90
23233;DHT22;11785;49.500;8.288;2022-12-18T16:02:18;-3.60;99.90
23233;DHT22;11785;49.500;8.288;2022-12-18T16:04:44;-3.60;99.90
23233;DHT22;11785;49.500;8.288;2022-12-18T16:07:11;-3.50;99.90
23233;DHT22;11785;49.500;8.288;2022-12-18T16:09:37;-3.60;99.90
23233;DHT22;11785;49.500;8.288;2022-12-18T16:12:04;-3.60;99.90
23233;DHT22;11785;49.500;8.288;2022-12-18T16:14:31;-3.60;99.90
23233;DHT22;11785;49.500;8.288;2022-12-18T16:17:06;-3.70;99.90
23233;DHT22;11785;49.500;8.288;2022-12-18T16:19:34;-3.70;99.90
23233;DHT22;11785;49.500;8.288;2022-12-18T16:22:00;-3.70;99.90
23233;DHT22;11785;49.500;8.288;2022-12-18T16:24:30;-3.70;99.90
23233;DHT22;11785;49.500;8.288;2022-12-18T16:26:57;-3.70;99.90
23233;DHT22;11785;49.500;8.288;2022-12-18T16:29:25;-3.70;99.90
23233;DHT22;11785;49.500;8.288;2022-12-18T16:32:00;-3.70;99.90
23233;DHT22;11785;49.500;8.288;2022-12-18T16:34:29;-3.70;99.90
23233;DHT22;11785;49.500;8.288;2022-12-18T16:37:02;-3.70;99.90
23233;DHT22;11785;49.500;8.288;2022-12-18T16:39:29;-3.70;99.90
23233;DHT22;11785;49.500;8.288;2022-12-18T16:41:56;-3.80;48.30
23233;DHT22;11785;49.500;8.288;2022-12-18T16:44:24;-3.80;48.30
23233;DHT22;11785;49.500;8.288;2022-12-18T16:46:52;-3.80;48.30
23233;DHT22;11785;49.500;8.288;2022-12-18T16:49:18;-3.80;48.30
23233;DHT22;11785;49.500;8.288;2022-12-18T16:51:45;-3.80;48.30
23233;DHT22;11785;49.500;8.288;2022-12-18T16:54:11;-3.80;48.30
23233;DHT22;11785;49.500;8.288;2022-12-18T16:56:38;-3.80;48.30
23233;DHT22;11785;49.500;8.288;2022-12-18T16:59:04;-3.80;48.30
23233;DHT22;11785;49.500;8.288;2022-12-18T17:01:30;-3.80;48.30
23233;DHT22;11785;49.500;8.288;2022-12-18T17:03:59;-3.80;48.30
23233;DHT22;11785;49.500;8.288;2022-12-18T17:06:26;-3.80;48.20
23233;DHT22;11785;49.500;8.288;2022-12-18T17:09:15;-3.80;48.20
23233;DHT22;11785;49.500;8.288;2022-12-18T17:11:42;-3.80;48.20
23233;DHT22;11785;49.500;8.288;2022-12-18T17:14:10;-3.80;48.20
23233;DHT22;11785;49.500;8.288;2022-12-18T17:16:37;-3.80;48.20
23233;DHT22;11785;49.500;8.288;2022-12-18T17:19:03;-3.80;48.20
23233;DHT22;11785;49.500;8.288;2022-12-18T17:21:29;-3.80;48.20
23233;DHT22;11785;49.500;8.288;2022-12-18T17:23:55;-3.80;48.20
23233;DHT22;11785;49.500;8.288;2022-12-18T17:26:24;-3.80;48.20
23233;DHT22;11785;49.500;8.288;2022-12-18T17:28:49;-3.80;48.20
23233;DHT22;11785;49.500;8.288;2022-12-18T17:31:21;-3.80;48.20
23233;DHT22;11785;49.500;8.288;2022-12-18T17:33:47;-3.80;48.20
23233;DHT22;11785;49.500;8.288;2022-12-18T17:36:13;-3.80;48.20
23233;DHT22;11785;49.500;8.288;2022-12-18T17:38:41;-3.80;48.20
23233;DHT22;11785;49.500;8.288;2022-12-18T17:41:09;-3.80;48.20
23233;DHT22;11785;49.500;8.288;2022-12-18T17:43:35;-3.80;48.20
23233;DHT22;11785;49.500;8.288;2022-12-18T17:46:05;-3.80;48.20